Time;durP1;ratioP1;P1;durP2;ratioP2;P2;SDS_P1;SDS_P2;PMS_P1;PMS_P2;Temp;Humidity;BMP_temperature;BMP_pressure;BME280_temperature;BME280_humidity;BME280_pressure;Samples;Min_cycle;Max_cycle;Signal;HPM_P1;HPM_P2
2022/04/16 00:01:12;;;;;;;13.90;11.70;;;;;;;9.16;75.68;102839.66;5052021;28;20029;-71
2022/04/16 00:03:38;;;;;;;13.93;11.60;;;;;;;9.15;75.46;102842.50;5041555;28;20034;-70
2022/04/16 00:06:03;;;;;;;14.15;10.90;;;;;;;9.13;75.64;102839.97;5034347;28;20472;-69
2022/04/16 00:08:29;;;;;;;16.15;11.20;;;;;;;9.14;75.25;102835.44;5034465;28;20513;-72
2022/04/16 00:10:55;;;;;;;16.77;12.30;;;;;;;9.11;75.89;102842.00;5034471;28;20037;-70
2022/04/16 00:13:21;;;;;;;15.20;11.25;;;;;;;9.03;76.51;102837.44;5033949;28;20028;-71
2022/04/16 00:15:49;;;;;;;16.67;11.15;;;;;;;9.05;75.35;102845.38;5016243;28;20037;-69
2022/04/16 00:18:14;;;;;;;15.45;11.98;;;;;;;9.07;75.96;102845.19;5034140;28;20120;-69
2022/04/16 00:20:40;;;;;;;15.50;11.93;;;;;;;9.00;75.38;102835.06;5041379;28;20108;-69
2022/04/16 00:23:06;;;;;;;14.88;11.27;;;;;;;8.98;76.14;102841.63;5053927;28;20086;-69
2022/04/16 00:25:33;;;;;;;12.95;10.27;;;;;;;9.04;75.83;102843.66;5054091;28;20468;-72
2022/04/16 00:27:58;;;;;;;14.55;11.98;;;;;;;8.95;75.87;102833.84;5054068;28;20036;-72
2022/04/16 00:30:24;;;;;;;14.75;11.52;;;;;;;8.92;76.12;102843.13;5053816;28;20021;-67
2022/04/16 00:32:54;;;;;;;15.68;12.13;;;;;;;8.87;76.28;102843.63;5054092;28;20380;-69
2022/04/16 00:35:19;;;;;;;15.35;11.45;;;;;;;8.86;76.10;102838.38;5053664;28;20032;-73
2022/04/16 00:37:46;;;;;;;15.48;12.10;;;;;;;8.84;76.34;102845.81;5053610;28;20112;-71
2022/04/16 00:40:11;;;;;;;18.27;11.93;;;;;;;8.82;76.75;102845.97;5046383;28;20033;-71
2022/04/16 00:42:43;;;;;;;14.95;12.05;;;;;;;8.76;76.86;102846.63;5034120;28;20544;-72
2022/04/16 00:45:09;;;;;;;16.83;12.60;;;;;;;8.74;76.83;102845.09;5033658;28;20088;-68
2022/04/16 00:47:36;;;;;;;16.38;12.23;;;;;;;8.72;76.85;102857.94;5033796;28;20481;-73
2022/04/16 00:50:03;;;;;;;17.23;12.30;;;;;;;8.68;77.61;102855.56;5033657;28;20030;-70
2022/04/16 00:52:28;;;;;;;18.48;12.07;;;;;;;8.71;77.64;102851.69;5033522;28;20044;-70
2022/04/16 00:54:55;;;;;;;16.67;12.48;;;;;;;8.72;77.73;102858.75;5033274;28;20022;-71
2022/04/16 00:57:21;;;;;;;16.40;12.88;;;;;;;8.72;77.66;102844.44;5033281;28;20100;-70
2022/04/16 00:59:47;;;;;;;15.68;12.00;;;;;;;8.71;77.68;102845.44;5033524;28;20030;-68
2022/04/16 01:02:12;;;;;;;17.73;12.68;;;;;;;8.64;77.92;102843.38;5039565;28;20079;-73
2022/04/16 01:04:38;;;;;;;17.17;13.63;;;;;;;8.59;78.31;102845.75;5053364;28;20033;-69
2022/04/16 01:07:06;;;;;;;16.23;12.55;;;;;;;8.57;78.43;102842.34;5019185;28;20029;-71
2022/04/16 01:09:32;;;;;;;18.70;13.80;;;;;;;8.47;78.77;102847.88;5053422;28;20049;-68
2022/04/16 01:11:57;;;;;;;17.80;12.63;;;;;;;8.48;78.19;102846.03;5035216;28;20427;-70
2022/04/16 01:14:23;;;;;;;19.58;13.73;;;;;;;8.45;78.54;102847.19;5052951;28;20033;-71
2022/04/16 01:16:48;;;;;;;18.70;14.32;;;;;;;8.46;78.69;102854.28;5053020;28;20025;-72
2022/04/16 01:19:14;;;;;;;18.95;13.30;;;;;;;8.46;79.00;102848.03;5052913;28;20362;-72
2022/04/16 01:21:39;;;;;;;21.95;14.20;;;;;;;8.40;78.95;102846.81;5035180;28;20156;-68
2022/04/16 01:24:05;;;;;;;23.75;14.45;;;;;;;8.40;78.55;102856.75;5015369;28;20065;-72
2022/04/16 01:26:31;;;;;;;17.52;14.65;;;;;;;8.33;78.95;102856.53;5033181;28;20514;-73
2022/04/16 01:28:56;;;;;;;22.00;15.02;;;;;;;8.35;79.49;102851.84;5032840;28;20032;-70
2022/04/16 01:31:22;;;;;;;18.92;14.63;;;;;;;8.33;79.33;102859.22;5014963;28;20052;-71
2022/04/16 01:33:47;;;;;;;19.58;14.43;;;;;;;8.36;79.86;102861.59;5032584;28;20033;-72
2022/04/16 01:36:13;;;;;;;19.10;15.18;;;;;;;8.31;79.67;102864.78;5015602;28;20029;-71
2022/04/16 01:38:38;;;;;;;20.35;14.70;;;;;;;8.27;79.84;102863.44;5032763;28;20377;-71
2022/04/16 01:41:04;;;;;;;19.17;14.77;;;;;;;8.34;79.37;102871.72;5032867;28;20029;-72
2022/04/16 01:43:30;;;;;;;19.05;14.95;;;;;;;8.26;79.81;102864.44;5014852;28;20053;-72
2022/04/16 01:45:56;;;;;;;21.95;15.63;;;;;;;8.26;79.84;102866.31;5032761;28;20072;-70
2022/04/16 01:48:22;;;;;;;20.60;15.13;;;;;;;8.23;80.28;102875.53;5032544;28;20485;-71
2022/04/16 01:50:48;;;;;;;23.17;15.48;;;;;;;8.20;80.06;102875.00;5032634;28;20164;-71
2022/04/16 01:53:14;;;;;;;22.40;15.70;;;;;;;8.14;80.90;102871.94;5032472;28;20057;-71
2022/04/16 01:55:39;;;;;;;19.40;15.30;;;;;;;8.18;80.81;102874.31;5032825;28;20450;-69
2022/04/16 01:58:06;;;;;;;20.25;15.50;;;;;;;8.16;80.33;102874.47;5052497;28;20187;-71
2022/04/16 02:00:33;;;;;;;18.38;15.35;;;;;;;8.14;80.07;102865.72;5049718;28;20544;-69
2022/04/16 02:02:59;;;;;;;19.77;15.35;;;;;;;8.13;80.46;102866.72;5052402;28;20452;-73
2022/04/16 02:05:25;;;;;;;20.40;15.23;;;;;;;8.10;80.79;102869.72;5051935;28;20033;-68
2022/04/16 02:07:50;;;;;;;19.73;15.93;;;;;;;8.09;81.27;102868.03;5034268;28;20049;-73
2022/04/16 02:10:16;;;;;;;20.83;15.98;;;;;;;8.09;81.21;102862.63;5052252;28;20029;-69
2022/04/16 02:12:42;;;;;;;19.38;15.88;;;;;;;8.05;80.51;102872.06;5052515;28;20025;-72
2022/04/16 02:15:09;;;;;;;18.55;15.35;;;;;;;7.97;81.27;102865.59;5051919;28;20052;-72
2022/04/16 02:17:36;;;;;;;23.15;16.58;;;;;;;7.96;80.77;102869.31;5048846;28;20063;-72
2022/04/16 02:20:03;;;;;;;19.95;15.07;;;;;;;7.93;80.91;102869.63;5032452;28;20033;-69
2022/04/16 02:22:39;;;;;;;22.33;15.93;;;;;;;7.95;80.91;102869.47;5031881;28;20116;-72
2022/04/16 02:25:05;;;;;;;21.25;16.58;;;;;;;7.90;81.52;102869.94;5032747;28;20463;-73
2022/04/16 02:27:31;;;;;;;18.88;15.57;;;;;;;7.85;81.96;102877.66;5014082;28;20108;-71
2022/04/16 02:29:57;;;;;;;21.95;15.77;;;;;;;7.85;81.38;102866.88;5032252;28;20108;-71
2022/04/16 02:32:23;;;;;;;23.90;16.38;;;;;;;7.83;81.74;102876.13;5014304;28;20121;-69
2022/04/16 02:34:51;;;;;;;19.55;16.30;;;;;;;7.82;82.64;102875.28;5031892;28;20427;-70
2022/04/16 02:37:17;;;;;;;23.23;16.58;;;;;;;7.81;82.52;102877.09;5031979;28;20029;-73
2022/04/16 02:39:42;;;;;;;20.27;15.88;;;;;;;7.80;82.48;102874.56;5015574;28;20036;-70
2022/04/16 02:42:07;;;;;;;21.10;16.55;;;;;;;7.81;82.33;102881.66;5032191;28;20549;-73
2022/04/16 02:47:16;;;;;;;22.08;16.70;;;;;;;7.76;82.53;102878.56;5031745;28;20037;-69
2022/04/16 02:49:43;;;;;;;21.95;16.40;;;;;;;7.68;82.43;102879.34;5034666;28;20397;-71
2022/04/16 02:52:09;;;;;;;21.63;17.30;;;;;;;7.69;82.56;102885.63;5035876;28;20029;-73
2022/04/16 02:54:35;;;;;;;19.20;15.55;;;;;;;7.72;83.16;102882.59;5035602;28;20036;-70
2022/04/16 02:57:00;;;;;;;21.45;16.40;;;;;;;7.72;82.94;102871.81;5035870;28;20029;-73
2022/04/16 02:59:27;;;;;;;22.90;16.88;;;;;;;7.76;83.13;102892.06;5035576;28;20038;-73
2022/04/16 03:01:54;;;;;;;20.88;17.25;;;;;;;7.72;82.67;102890.69;5034603;28;20468;-75
2022/04/16 03:04:19;;;;;;;20.20;16.92;;;;;;;7.68;83.01;102890.13;5035588;28;20079;-74
2022/04/16 03:06:44;;;;;;;20.38;16.80;;;;;;;7.67;82.25;102890.28;5035577;28;20029;-73
2022/04/16 03:09:10;;;;;;;21.70;16.80;;;;;;;7.63;82.66;102893.31;5035713;28;20049;-74
2022/04/16 03:11:35;;;;;;;23.90;16.75;;;;;;;7.62;83.40;102896.16;5035771;28;20025;-71
2022/04/16 03:17:31;;;;;;;21.88;16.75;;;;;;;7.66;82.71;102889.47;5035498;28;20037;-71
2022/04/16 03:19:31;;;;;;;23.23;17.27;;;;;;;7.63;83.45;102896.00;5034967;28;20060;-71
2022/04/16 03:21:57;;;;;;;22.30;17.27;;;;;;;7.64;83.14;102902.25;5035654;28;20033;-73
2022/04/16 03:24:22;;;;;;;20.77;16.67;;;;;;;7.61;82.82;102894.47;5035140;28;20196;-70
2022/04/16 03:26:48;;;;;;;24.05;17.70;;;;;;;7.63;82.88;102896.00;5035332;28;20034;-69
2022/04/16 03:29:14;;;;;;;22.20;17.15;;;;;;;7.58;82.44;102906.41;5034716;28;20026;-73
2022/04/16 03:31:40;;;;;;;23.42;17.90;;;;;;;7.53;82.94;102897.91;5035186;28;20061;-71
2022/04/16 03:34:05;;;;;;;23.38;17.15;;;;;;;7.48;83.27;102902.09;5035063;28;20068;-68
2022/04/16 03:36:31;;;;;;;21.98;17.48;;;;;;;7.47;82.64;102900.41;5034878;28;20580;-68
2022/04/16 03:38:56;;;;;;;22.27;17.63;;;;;;;7.45;83.38;102903.25;5017383;28;20025;-71
2022/04/16 03:41:21;;;;;;;23.88;17.65;;;;;;;7.41;83.23;102901.84;5034835;28;20030;-71
2022/04/16 03:43:46;;;;;;;22.00;18.02;;;;;;;7.41;83.39;102901.84;5035047;28;20080;-70
2022/04/16 03:46:12;;;;;;;24.85;17.90;;;;;;;7.32;83.75;102894.69;5034987;28;20032;-69
2022/04/16 03:48:38;;;;;;;22.67;17.48;;;;;;;7.33;83.89;102899.91;5034771;28;20026;-70
2022/04/16 03:51:03;;;;;;;23.23;18.25;;;;;;;7.35;83.96;102902.47;5034939;28;20021;-72
2022/04/16 03:53:29;;;;;;;25.13;17.63;;;;;;;7.33;83.31;102899.09;5034728;28;20599;-68
2022/04/16 04:01:22;;;;;;;24.67;18.13;;;;;;;7.34;83.44;102909.72;5051568;28;20047;-72
2022/04/16 04:03:48;;;;;;;23.73;18.17;;;;;;;7.38;83.47;102915.63;5054373;28;20120;-73
2022/04/16 04:06:13;;;;;;;24.77;17.80;;;;;;;7.32;83.47;102900.91;5054601;28;20036;-71
2022/04/16 04:08:38;;;;;;;24.90;18.35;;;;;;;7.34;83.61;102907.00;5054187;28;20055;-72
2022/04/16 04:11:04;;;;;;;23.35;17.92;;;;;;;7.34;83.30;102906.19;5054036;28;20067;-71
2022/04/16 04:13:29;;;;;;;28.73;19.25;;;;;;;7.27;83.76;102909.44;5054198;28;20033;-71
2022/04/16 04:15:54;;;;;;;24.45;19.27;;;;;;;7.25;83.69;102910.63;5054265;28;20032;-71
2022/04/16 04:18:22;;;;;;;26.42;18.35;;;;;;;7.25;83.86;102914.16;5040049;28;20030;-69
2022/04/16 04:20:48;;;;;;;22.88;18.67;;;;;;;7.22;84.20;102914.47;5034328;28;20037;-73
2022/04/16 04:23:13;;;;;;;27.05;19.48;;;;;;;7.21;84.26;102915.44;5034235;28;20033;-71
2022/04/16 04:25:38;;;;;;;24.27;19.58;;;;;;;7.24;84.04;102917.84;5034058;28;20034;-72
2022/04/16 04:28:03;;;;;;;24.60;19.73;;;;;;;7.22;84.28;102919.84;5033818;28;20022;-70
2022/04/16 04:30:30;;;;;;;25.73;19.75;;;;;;;7.23;83.73;102924.25;5033957;28;20026;-69
2022/04/16 04:32:57;;;;;;;25.75;19.30;;;;;;;7.21;83.98;102934.31;5034094;28;20057;-69
2022/04/16 04:35:22;;;;;;;24.67;19.23;;;;;;;7.13;84.45;102931.53;5033735;28;20034;-72
2022/04/16 04:37:47;;;;;;;22.88;18.63;;;;;;;7.13;84.75;102926.16;5047031;28;20110;-69
2022/04/16 04:40:13;;;;;;;22.90;18.67;;;;;;;7.16;84.56;102930.38;5054127;28;20032;-70
2022/04/16 04:42:38;;;;;;;31.15;19.60;;;;;;;7.17;84.67;102932.94;5053523;28;20024;-71
2022/04/16 04:45:11;;;;;;;27.38;19.55;;;;;;;7.15;84.62;102944.84;5053800;28;20095;-70
2022/04/16 04:47:37;;;;;;;26.58;19.65;;;;;;;7.15;84.32;102940.28;5035557;28;20925;-71
2022/04/16 04:50:03;;;;;;;24.92;20.25;;;;;;;7.08;84.75;102944.56;5053327;28;20037;-70
2022/04/16 04:52:30;;;;;;;26.23;19.83;;;;;;;7.10;85.06;102947.97;5053535;28;20086;-69
2022/04/16 04:55:00;;;;;;;25.55;20.48;;;;;;;7.04;84.91;102949.44;5053372;28;20037;-70
2022/04/16 04:57:26;;;;;;;24.00;19.92;;;;;;;7.05;85.40;102948.44;5038805;28;20516;-69
2022/04/16 04:59:52;;;;;;;26.90;20.63;;;;;;;7.09;84.80;102957.03;5015939;28;20038;-72
2022/04/16 05:02:18;;;;;;;28.17;20.63;;;;;;;7.07;85.15;102956.38;5030905;28;20029;-74
2022/04/16 05:04:44;;;;;;;25.90;20.65;;;;;;;7.07;85.34;102954.50;5033298;28;20409;-71
2022/04/16 05:07:09;;;;;;;25.17;20.05;;;;;;;7.05;85.07;102958.34;5033253;28;20108;-70
2022/04/16 05:09:35;;;;;;;28.10;21.88;;;;;;;7.05;85.45;102961.91;5015321;28;20112;-70
2022/04/16 05:12:01;;;;;;;26.30;20.55;;;;;;;7.03;85.21;102968.41;5032511;28;20033;-68
2022/04/16 05:14:26;;;;;;;25.48;20.92;;;;;;;7.00;85.22;102961.47;5032684;28;20083;-73
2022/04/16 05:16:52;;;;;;;27.67;21.95;;;;;;;6.97;85.30;102969.84;5036605;28;20376;-72
2022/04/16 05:19:17;;;;;;;28.00;22.35;;;;;;;7.03;85.16;102966.56;5053075;28;20025;-67
2022/04/16 05:21:42;;;;;;;25.77;21.52;;;;;;;6.99;85.69;102967.00;5052924;28;20061;-70
2022/04/16 05:24:09;;;;;;;28.17;21.13;;;;;;;6.91;86.02;102965.94;5052974;28;20108;-70
2022/04/16 05:26:35;;;;;;;26.80;21.60;;;;;;;6.98;86.12;102970.72;5052732;28;20063;-77
2022/04/16 05:29:00;;;;;;;30.77;23.35;;;;;;;7.00;86.05;102977.63;5053210;28;20036;-69
2022/04/16 05:31:30;;;;;;;25.80;21.52;;;;;;;7.08;85.61;102976.88;5052734;28;20056;-70
2022/04/16 05:36:39;;;;;;;27.08;21.40;;;;;;;7.08;85.80;102972.38;5051508;28;20102;-69
2022/04/16 05:39:05;;;;;;;26.90;21.63;;;;;;;7.14;85.47;102979.00;5052590;28;20029;-71
2022/04/16 05:41:33;;;;;;;28.75;22.17;;;;;;;7.14;86.14;102976.31;5052124;28;20112;-72
2022/04/16 05:44:01;;;;;;;26.52;22.08;;;;;;;7.11;86.10;102984.69;5052632;28;20033;-72
2022/04/16 05:46:26;;;;;;;26.95;22.70;;;;;;;7.18;86.38;102979.53;5052036;28;20111;-71
2022/04/16 05:48:52;;;;;;;28.33;22.60;;;;;;;7.16;85.81;102974.31;5052720;28;20120;-70
2022/04/16 05:51:18;;;;;;;29.67;22.90;;;;;;;7.16;86.50;102978.84;5052693;28;20037;-71
2022/04/16 05:53:45;;;;;;;28.80;23.23;;;;;;;7.18;86.32;102988.47;5051806;28;20487;-72
2022/04/16 05:56:11;;;;;;;29.45;22.10;;;;;;;7.22;86.53;102989.84;5052648;28;20053;-75
2022/04/16 05:58:37;;;;;;;26.02;22.65;;;;;;;7.27;86.48;102992.94;5050626;28;20029;-71
2022/04/16 06:01:02;;;;;;;27.90;22.90;;;;;;;7.33;86.36;103001.44;5049834;28;20074;-72
2022/04/16 06:03:28;;;;;;;27.85;22.63;;;;;;;7.37;86.24;103002.84;5034313;28;20033;-69
2022/04/16 06:05:54;;;;;;;30.63;23.60;;;;;;;7.37;86.19;103002.84;5034531;28;20040;-70
2022/04/16 06:08:20;;;;;;;33.30;23.70;;;;;;;7.40;86.43;103013.31;5052278;28;20053;-73
2022/04/16 06:10:45;;;;;;;29.65;23.50;;;;;;;7.41;86.47;103012.28;5052268;28;20032;-70
2022/04/16 06:13:11;;;;;;;29.40;23.77;;;;;;;7.48;86.25;103015.25;5052415;28;20025;-72
2022/04/16 06:15:40;;;;;;;30.33;24.77;;;;;;;7.45;87.06;103019.91;5051867;28;20452;-69
2022/04/16 06:18:05;;;;;;;29.83;24.80;;;;;;;7.50;86.85;103019.47;5048314;28;20038;-73
2022/04/16 06:20:31;;;;;;;29.23;24.42;;;;;;;7.54;87.16;103015.47;5031963;28;20045;-73
2022/04/16 06:22:56;;;;;;;32.70;25.40;;;;;;;7.60;86.88;103028.34;5016002;28;20457;-72
2022/04/16 06:25:22;;;;;;;31.42;24.95;;;;;;;7.67;86.72;103033.97;5036435;28;20038;-71
2022/04/16 06:27:47;;;;;;;31.45;24.88;;;;;;;7.74;86.43;103020.72;5018888;28;20025;-72
2022/04/16 06:30:13;;;;;;;32.30;26.00;;;;;;;7.78;87.06;103024.81;5036074;28;20037;-73
2022/04/16 06:32:38;;;;;;;29.38;24.33;;;;;;;7.83;86.81;103024.38;5035844;28;20033;-73
2022/04/16 06:35:05;;;;;;;32.45;25.15;;;;;;;7.90;86.33;103022.75;5036006;28;20103;-72
2022/04/16 06:37:32;;;;;;;33.67;25.50;;;;;;;7.96;86.62;103022.97;5036240;28;20115;-71
2022/04/16 06:39:57;;;;;;;32.33;26.00;;;;;;;8.05;86.53;103029.31;5018557;28;20036;-70
2022/04/16 06:42:22;;;;;;;33.63;25.80;;;;;;;8.09;86.86;103027.13;5036377;28;20025;-69
2022/04/16 06:44:48;;;;;;;32.97;25.60;;;;;;;8.14;86.95;103022.97;5018167;28;20033;-72
2022/04/16 06:47:13;;;;;;;32.80;26.17;;;;;;;8.22;86.96;103030.28;5036151;28;20507;-74
2022/04/16 06:49:38;;;;;;;35.88;25.80;;;;;;;8.30;87.66;103040.28;5018022;28;20129;-72
2022/04/16 06:52:04;;;;;;;36.33;26.35;;;;;;;8.40;86.82;103026.72;5035743;28;20180;-72
2022/04/16 06:54:30;;;;;;;35.50;27.20;;;;;;;8.51;86.87;103029.19;5017660;28;20056;-72
2022/04/16 06:56:55;;;;;;;35.22;27.23;;;;;;;8.57;86.17;103033.13;5018310;28;20267;-69
2022/04/16 06:59:20;;;;;;;36.20;26.88;;;;;;;8.64;86.58;103034.19;5047916;28;20041;-71
2022/04/16 07:01:45;;;;;;;34.15;26.60;;;;;;;8.69;86.14;103029.97;5035251;28;20040;-69
2022/04/16 07:04:11;;;;;;;33.20;26.52;;;;;;;8.73;86.47;103029.69;5055296;28;20044;-69
2022/04/16 07:06:39;;;;;;;35.78;27.00;;;;;;;8.82;86.72;103026.88;5037458;28;20041;-72
2022/04/16 07:09:04;;;;;;;34.08;25.50;;;;;;;8.90;86.16;103023.38;5055496;28;20071;-72
2022/04/16 07:11:29;;;;;;;33.08;26.10;;;;;;;9.01;85.58;103030.34;5054852;28;20532;-69
2022/04/16 07:13:54;;;;;;;36.28;26.42;;;;;;;9.10;86.02;103029.34;5036944;28;20180;-69
2022/04/16 07:16:20;;;;;;;34.10;25.42;;;;;;;9.14;85.70;103033.44;5037446;28;20037;-70
2022/04/16 07:18:46;;;;;;;34.35;24.63;;;;;;;9.21;85.18;103025.56;5025849;28;20044;-73
2022/04/16 07:21:11;;;;;;;33.80;25.02;;;;;;;9.25;84.38;103037.72;5035283;28;20485;-72
2022/04/16 07:23:36;;;;;;;32.55;24.55;;;;;;;9.30;84.36;103032.69;5035068;28;20469;-71
2022/04/16 07:26:01;;;;;;;29.65;23.48;;;;;;;9.36;84.09;103034.72;5037213;28;20056;-69
2022/04/16 07:28:27;;;;;;;31.67;23.50;;;;;;;9.38;84.52;103034.56;5055424;28;20025;-71
2022/04/16 07:30:55;;;;;;;31.95;23.33;;;;;;;9.44;83.53;103033.91;5054816;28;20120;-73
2022/04/16 07:33:21;;;;;;;32.28;23.30;;;;;;;9.48;84.02;103037.97;5055260;28;20048;-68
2022/04/16 07:35:47;;;;;;;30.63;23.65;;;;;;;9.55;82.65;103032.75;5053123;28;20029;-72
2022/04/16 07:38:12;;;;;;;29.50;22.80;;;;;;;9.62;82.63;103039.19;5054548;28;20079;-70
2022/04/16 07:40:38;;;;;;;28.92;23.02;;;;;;;9.67;82.78;103041.41;5037080;28;20021;-71
2022/04/16 07:43:03;;;;;;;31.55;23.77;;;;;;;9.68;82.29;103038.53;5034961;28;20095;-71
2022/04/16 07:45:29;;;;;;;28.48;22.58;;;;;;;9.71;82.40;103038.19;5022501;28;20395;-71
2022/04/16 07:47:54;;;;;;;31.85;23.83;;;;;;;9.79;82.26;103048.19;5054451;28;20033;-71
2022/04/16 07:50:20;;;;;;;28.85;22.20;;;;;;;9.89;82.45;103046.19;5054903;28;20490;-69
2022/04/16 07:52:47;;;;;;;31.40;24.38;;;;;;;9.99;82.28;103040.59;5054507;28;20040;-70
2022/04/16 07:55:13;;;;;;;27.80;22.75;;;;;;;10.04;81.74;103035.56;5054641;28;20034;-72
2022/04/16 07:57:38;;;;;;;30.88;22.83;;;;;;;10.10;81.16;103040.28;5035558;28;20044;-75
2022/04/16 08:00:09;;;;;;;28.77;22.67;;;;;;;10.19;81.71;103040.28;5045239;28;20494;-74
2022/04/16 08:02:34;;;;;;;31.02;23.23;;;;;;;10.25;80.91;103036.91;5052119;28;20116;-72
2022/04/16 08:04:59;;;;;;;29.33;21.52;;;;;;;10.36;80.92;103038.47;5054312;28;20449;-70
2022/04/16 08:07:25;;;;;;;30.33;22.33;;;;;;;10.41;80.33;103045.06;5036433;28;20649;-75
2022/04/16 08:09:50;;;;;;;29.60;21.40;;;;;;;10.52;80.52;103046.56;5036156;28;20025;-77
2022/04/16 08:12:15;;;;;;;26.15;20.42;;;;;;;10.56;79.76;103042.50;5054818;28;20032;-72
2022/04/16 08:14:41;;;;;;;26.45;20.60;;;;;;;10.61;79.36;103040.16;5053994;28;20052;-70
2022/04/16 08:17:06;;;;;;;27.58;21.55;;;;;;;10.69;78.83;103042.00;5054365;28;20029;-73
2022/04/16 08:19:35;;;;;;;27.35;20.42;;;;;;;10.73;79.16;103048.72;5052745;28;20400;-77
2022/04/16 08:22:00;;;;;;;24.42;20.17;;;;;;;10.81;78.47;103037.06;5036116;28;20396;-72
2022/04/16 08:26:53;;;;;;;24.70;18.92;;;;;;;10.88;77.61;103039.91;5054004;28;20037;-72
2022/04/16 08:29:19;;;;;;;30.13;20.33;;;;;;;10.93;77.74;103042.94;5053979;28;20374;-74
2022/04/16 08:31:44;;;;;;;27.33;20.50;;;;;;;10.95;77.47;103047.16;5052055;28;20116;-73
2022/04/16 08:34:09;;;;;;;25.50;19.42;;;;;;;11.02;77.34;103047.34;5033928;28;20029;-72
2022/04/16 08:36:36;;;;;;;22.38;17.55;;;;;;;11.10;76.59;103052.72;5033607;28;20036;-76
2022/04/16 08:39:02;;;;;;;26.95;19.77;;;;;;;11.10;76.35;103051.88;5034287;28;20111;-70
2022/04/16 08:41:30;;;;;;;21.75;17.75;;;;;;;11.22;76.45;103055.03;5033611;28;20087;-74
2022/04/16 08:43:56;;;;;;;22.92;17.92;;;;;;;11.26;75.83;103048.25;5033891;28;20426;-69
2022/04/16 08:46:23;;;;;;;21.80;18.08;;;;;;;11.29;75.74;103058.75;5032467;28;20362;-74
2022/04/16 08:48:49;;;;;;;24.60;18.63;;;;;;;11.42;75.77;103060.91;5036936;28;20464;-72
2022/04/16 08:51:15;;;;;;;22.77;17.88;;;;;;;11.41;75.14;103065.47;5053339;28;20032;-71
2022/04/16 08:53:41;;;;;;;22.02;17.02;;;;;;;11.44;74.80;103062.41;5053308;28;20021;-68
2022/04/16 08:56:07;;;;;;;20.77;16.33;;;;;;;11.51;74.71;103052.53;5035534;28;20357;-72
2022/04/16 08:58:39;;;;;;;20.85;17.65;;;;;;;11.60;74.99;103050.63;5035548;28;20029;-71
2022/04/16 09:01:16;;;;;;;19.33;15.32;;;;;;;11.69;73.50;103043.31;5033105;28;20495;-71
2022/04/16 09:03:58;;;;;;;21.83;15.45;;;;;;;11.84;73.57;103052.34;5034868;28;20575;-73
2022/04/16 09:06:25;;;;;;;19.67;15.75;;;;;;;11.93;73.16;103049.63;5035236;28;20081;-71
2022/04/16 09:08:50;;;;;;;19.80;15.68;;;;;;;12.01;72.81;103046.84;5046163;28;20055;-72
2022/04/16 09:11:20;;;;;;;20.55;15.38;;;;;;;12.06;71.48;103049.84;5033140;28;20025;-71
2022/04/16 09:13:49;;;;;;;23.92;17.75;;;;;;;12.03;71.12;103050.22;5033163;28;20369;-70
2022/04/16 09:16:14;;;;;;;21.42;16.58;;;;;;;11.96;70.85;103054.69;5033058;28;20053;-70
2022/04/16 09:18:51;;;;;;;22.25;15.30;;;;;;;11.94;71.83;103052.16;5051364;28;20447;-72
2022/04/16 09:21:18;;;;;;;18.67;14.05;;;;;;;11.94;69.44;103056.72;5072576;28;20036;-72
2022/04/16 09:23:47;;;;;;;18.30;14.35;;;;;;;11.93;69.86;103049.63;5051892;28;20485;-70
2022/04/16 09:26:13;;;;;;;20.38;14.02;;;;;;;11.87;69.37;103051.16;5052699;28;20029;-71
2022/04/16 09:28:44;;;;;;;18.35;14.63;;;;;;;11.83;69.89;103039.81;5052399;28;20052;-72
2022/04/16 09:31:09;;;;;;;18.02;12.40;;;;;;;11.84;69.42;103046.09;5069243;28;20033;-71
2022/04/16 09:33:39;;;;;;;17.00;12.88;;;;;;;11.91;69.16;103049.75;5072760;28;20036;-70
2022/04/16 09:36:04;;;;;;;16.98;12.52;;;;;;;11.93;68.79;103044.22;5038099;28;20082;-72
2022/04/16 09:38:37;;;;;;;17.33;12.77;;;;;;;11.94;68.79;103048.59;5056809;28;20037;-73
2022/04/16 09:41:07;;;;;;;17.30;12.90;;;;;;;11.94;67.21;103040.44;5034007;28;20034;-75
2022/04/16 09:43:36;;;;;;;14.82;11.15;;;;;;;12.08;68.14;103041.53;5033052;28;20025;-73
2022/04/16 09:46:10;;;;;;;14.77;11.55;;;;;;;12.14;67.43;103040.81;5028746;28;20057;-72
2022/04/16 09:48:36;;;;;;;19.35;11.98;;;;;;;12.15;66.11;103037.94;5034516;28;20024;-73
2022/04/16 09:51:05;;;;;;;15.35;11.38;;;;;;;12.30;67.45;103034.41;5052393;28;20029;-74
2022/04/16 09:53:30;;;;;;;13.35;9.98;;;;;;;12.49;66.29;103033.91;5034745;28;20033;-73
2022/04/16 09:55:58;;;;;;;13.50;10.32;;;;;;;12.70;65.09;103037.78;5034290;28;20900;-70
2022/04/16 09:58:30;;;;;;;13.55;9.85;;;;;;;12.86;63.97;103036.75;5052220;28;20025;-72
2022/04/16 10:00:56;;;;;;;11.85;9.25;;;;;;;12.98;62.75;103032.53;5050387;28;20481;-74
2022/04/16 10:03:21;;;;;;;10.10;7.65;;;;;;;12.99;60.73;103025.25;5052656;28;20037;-69
2022/04/16 10:05:47;;;;;;;10.35;7.95;;;;;;;12.92;60.94;103023.28;5036802;28;20501;-73
2022/04/16 10:08:13;;;;;;;10.40;7.50;;;;;;;12.97;60.76;103028.16;5032131;28;20045;-69
2022/04/16 10:10:46;;;;;;;10.38;8.20;;;;;;;13.02;60.26;103016.72;5032530;28;20423;-68
2022/04/16 10:13:14;;;;;;;9.65;7.20;;;;;;;13.15;58.78;103022.31;5032503;28;20037;-69
2022/04/16 10:15:59;;;;;;;9.77;6.88;;;;;;;13.22;59.30;103020.50;5032076;28;20120;-69
2022/04/16 10:18:25;;;;;;;9.43;7.45;;;;;;;13.30;57.93;103017.69;5032140;28;20025;-71
2022/04/16 10:21:00;;;;;;;9.32;7.65;;;;;;;13.38;58.88;103014.06;5032205;28;20071;-70
2022/04/16 10:23:37;;;;;;;11.02;8.52;;;;;;;13.44;58.70;103016.00;5032408;28;20083;-71
2022/04/16 10:26:06;;;;;;;10.23;8.27;;;;;;;13.47;58.70;103025.69;5048396;28;20120;-70
2022/04/16 10:28:52;;;;;;;11.65;9.30;;;;;;;13.43;59.48;103029.81;5052232;28;20036;-73
2022/04/16 10:31:25;;;;;;;10.80;7.50;;;;;;;13.47;58.17;103042.00;5052185;28;20083;-71
2022/04/16 10:34:05;;;;;;;6.10;4.63;;;;;;;13.46;55.13;103026.69;5051822;28;20025;-72
2022/04/16 10:36:33;;;;;;;6.03;5.25;;;;;;;13.50;54.71;103025.28;5052057;28;20108;-70
2022/04/16 10:39:13;;;;;;;9.00;6.63;;;;;;;13.51;56.15;103028.84;5051919;28;20061;-72
2022/04/16 10:41:38;;;;;;;8.98;6.70;;;;;;;13.55;56.01;103013.84;5051768;28;20376;-69
2022/04/16 10:44:08;;;;;;;6.60;5.75;;;;;;;13.58;55.36;103014.28;5043571;28;20034;-72
2022/04/16 10:46:46;;;;;;;5.95;5.35;;;;;;;13.58;55.48;103019.72;5031629;28;20469;-73
2022/04/16 10:49:12;;;;;;;7.35;5.03;;;;;;;13.57;54.09;103026.22;5032175;28;20623;-73
2022/04/16 10:51:37;;;;;;;10.48;5.80;;;;;;;13.68;54.64;103021.28;5031933;28;20025;-71
2022/04/16 10:54:14;;;;;;;6.45;4.72;;;;;;;13.68;53.90;103015.84;5032125;28;20362;-71
2022/04/16 10:56:44;;;;;;;5.18;4.32;;;;;;;13.72;52.57;103028.03;5031794;28;20472;-73
2022/04/16 10:59:11;;;;;;;5.60;4.50;;;;;;;13.77;52.26;103022.88;5031768;28;20088;-73
2022/04/16 11:01:37;;;;;;;6.68;5.28;;;;;;;13.80;52.60;103014.31;5029669;28;20461;-73
2022/04/16 11:04:14;;;;;;;7.00;5.10;;;;;;;13.83;54.56;103014.78;5014247;28;20492;-72
2022/04/16 11:06:48;;;;;;;6.07;5.13;;;;;;;13.88;52.07;103011.47;5045158;28;20040;-73
2022/04/16 11:09:18;;;;;;;6.57;5.07;;;;;;;13.99;52.33;103008.25;5052103;28;20057;-73
2022/04/16 11:11:43;;;;;;;5.85;4.93;;;;;;;14.11;52.40;103019.41;5055379;28;20029;-72
2022/04/16 11:14:10;;;;;;;6.80;5.07;;;;;;;14.15;50.58;103007.09;5055577;28;20032;-76
2022/04/16 11:16:47;;;;;;;6.50;5.22;;;;;;;14.25;51.98;103020.41;5055693;28;20170;-72
2022/04/16 11:19:15;;;;;;;6.20;4.93;;;;;;;14.33;51.38;103019.41;5034306;28;20063;-72
2022/04/16 11:21:40;;;;;;;6.40;4.97;;;;;;;14.35;50.92;103026.31;5035402;28;20493;-72
2022/04/16 11:24:06;;;;;;;6.28;4.93;;;;;;;14.42;50.56;103011.91;5035176;28;20108;-72
2022/04/16 11:34:54;;;;;;;9.27;5.70;;;;;;;14.58;50.47;103011.63;5034806;28;20044;-75
2022/04/16 11:37:20;;;;;;;6.18;5.57;;;;;;;14.65;50.10;102996.19;5035315;28;20041;-72
2022/04/16 11:39:46;;;;;;;9.43;5.75;;;;;;;14.68;49.31;103005.88;5034426;28;20045;-76